Airport View

Enter AWOS ICAO identifier for current METAR.

ex. KFNL

PAPN 191956Z AUTO 22009KT 2 1/2SM HZ CLR 16/13 A2996 RMK AO2 SLP149 T01560128 PWINO $

19 Aug 2019 20:17

Frequency: 118.375

Phone: 907-797-2296

Other Area AWOS: PAII - PAPH - PFWS - PAKN

TAF PAKN 191721Z 1918/2018 VRB06KT P6SM FEW250 FM192200 28010KT P6SM OVC050 FM200600 VRB03KT P6SM BKN050 FM201200 VRB03KT P6SM -RA OVC015